Time;durP1;ratioP1;P1;durP2;ratioP2;P2;SDS_P1;SDS_P2;PMS_P1;PMS_P2;Temp;Humidity;BMP_temperature;BMP_pressure;BME280_temperature;BME280_humidity;BME280_pressure;Samples;Min_cycle;Max_cycle;Signal;HPM_P1;HPM_P2
2022/03/06 00:02:04;;;;;;;14.77;11.63;;;;;;;-0.36;67.24;101653.06;5070075;28;20371;-24
2022/03/06 00:04:29;;;;;;;15.50;11.13;;;;;;;-0.36;67.45;101658.25;5050252;28;20107;-24
2022/03/06 00:06:55;;;;;;;13.73;11.57;;;;;;;-0.37;67.91;101656.50;5069171;28;20044;-24
2022/03/06 00:09:20;;;;;;;14.02;10.88;;;;;;;-0.39;67.90;101659.88;5069287;28;20107;-22
2022/03/06 00:11:45;;;;;;;15.55;10.88;;;;;;;-0.40;67.44;101659.81;5067813;28;20033;-25
2022/03/06 00:14:11;;;;;;;13.25;11.18;;;;;;;-0.43;67.59;101657.94;5032080;28;20025;-23
2022/03/06 00:16:36;;;;;;;13.95;10.93;;;;;;;-0.43;67.80;101652.75;5069060;28;20028;-25
2022/03/06 00:19:02;;;;;;;15.15;12.60;;;;;;;-0.45;67.50;101656.97;5070439;28;20396;-24
2022/03/06 00:21:34;;;;;;;14.70;11.45;;;;;;;-0.47;67.83;101661.19;5067069;28;20028;-24
2022/03/06 00:23:59;;;;;;;14.85;11.23;;;;;;;-0.48;67.72;101643.84;5052083;28;20032;-24
2022/03/06 00:26:24;;;;;;;16.30;11.88;;;;;;;-0.49;67.63;101652.44;5070821;28;20035;-25
2022/03/06 00:28:50;;;;;;;14.10;10.90;;;;;;;-0.49;68.26;101654.13;5068303;28;20020;-22
2022/03/06 00:31:19;;;;;;;13.35;10.05;;;;;;;-0.50;67.61;101650.66;5067777;28;20462;-25
2022/03/06 00:33:44;;;;;;;13.60;10.82;;;;;;;-0.51;68.25;101654.06;5049549;28;20024;-24
2022/03/06 00:36:09;;;;;;;12.55;10.75;;;;;;;-0.53;68.01;101659.16;5068039;28;20111;-24
2022/03/06 00:38:35;;;;;;;12.50;10.57;;;;;;;-0.53;67.91;101660.88;5066643;28;20024;-24
2022/03/06 00:41:00;;;;;;;13.13;11.65;;;;;;;-0.53;68.37;101658.28;5070300;28;20024;-25
2022/03/06 00:43:26;;;;;;;11.15;10.05;;;;;;;-0.54;68.53;101665.16;5067290;28;20012;-24
2022/03/06 00:45:51;;;;;;;12.65;11.10;;;;;;;-0.54;67.92;101664.25;5067706;28;20033;-25
2022/03/06 00:48:22;;;;;;;13.27;11.38;;;;;;;-0.55;68.33;101662.47;5067888;28;20501;-25
2022/03/06 00:50:47;;;;;;;;;;;;;;;-0.54;67.83;101666.84;5068212;28;20393;-25
2022/03/06 00:53:13;;;;;;;12.27;10.07;;;;;;;-0.55;68.00;101662.47;5069608;28;20164;-24
2022/03/06 00:55:38;;;;;;;12.77;10.20;;;;;;;-0.56;68.37;101666.75;5067414;28;20036;-24
2022/03/06 00:58:06;;;;;;;12.95;9.63;;;;;;;-0.56;68.42;101666.75;5067389;28;20393;-25
2022/03/06 01:00:37;;;;;;;13.43;9.55;;;;;;;-0.56;68.38;101668.50;5068794;28;20052;-25
2022/03/06 01:03:06;;;;;;;13.20;10.10;;;;;;;-0.56;67.97;101668.50;5069112;28;20506;-25
2022/03/06 01:05:35;;;;;;;12.52;9.85;;;;;;;-0.56;67.85;101665.91;5066556;28;20467;-24
2022/03/06 01:08:01;;;;;;;11.38;9.27;;;;;;;-0.56;67.88;101668.50;5067145;28;20375;-24
2022/03/06 01:10:27;;;;;;;12.10;10.00;;;;;;;-0.58;68.52;101668.41;5067280;28;20028;-25
2022/03/06 01:12:53;;;;;;;12.65;10.18;;;;;;;-0.58;68.54;101667.50;5065550;28;20033;-25
2022/03/06 01:15:21;;;;;;;12.00;8.93;;;;;;;-0.57;68.21;101666.72;5068642;28;20028;-24
2022/03/06 01:17:46;;;;;;;11.90;9.98;;;;;;;-0.56;68.50;101671.94;5072272;28;20033;-25
2022/03/06 01:20:12;;;;;;;13.77;10.13;;;;;;;-0.57;68.53;101675.34;5072082;28;20563;-24
2022/03/06 01:22:37;;;;;;;12.98;9.93;;;;;;;-0.58;68.14;101668.41;5053449;28;20039;-24
2022/03/06 01:25:06;;;;;;;10.85;9.27;;;;;;;-0.56;68.70;101676.25;5055054;28;20047;-25
2022/03/06 01:27:31;;;;;;;11.40;9.77;;;;;;;-0.56;68.79;101671.06;5072962;28;20127;-24
2022/03/06 01:30:00;;;;;;;9.15;8.18;;;;;;;-0.58;68.51;101668.41;5069846;28;20897;-24
2022/03/06 01:32:25;;;;;;;11.98;9.57;;;;;;;-0.58;68.66;101671.00;5072093;28;20310;-25
2022/03/06 01:34:50;;;;;;;11.13;8.43;;;;;;;-0.57;68.87;101672.75;5072251;28;20040;-24
2022/03/06 01:37:16;;;;;;;9.57;8.55;;;;;;;-0.55;68.65;101675.44;5072275;28;20482;-24
2022/03/06 01:39:41;;;;;;;9.48;8.43;;;;;;;-0.55;68.76;101667.66;5072180;28;20032;-25
2022/03/06 01:42:07;;;;;;;11.32;8.50;;;;;;;-0.55;68.06;101672.84;5070906;28;20028;-25
2022/03/06 01:44:35;;;;;;;10.43;7.97;;;;;;;-0.54;68.20;101669.44;5054686;28;20051;-23
2022/03/06 01:47:00;;;;;;;9.93;8.68;;;;;;;-0.55;68.33;101678.03;5071720;28;20111;-24
2022/03/06 01:49:25;;;;;;;9.70;8.30;;;;;;;-0.55;68.22;101673.75;5056551;28;20028;-24
2022/03/06 01:51:51;;;;;;;11.68;8.48;;;;;;;-0.55;68.28;101668.56;5071468;28;20036;-25
2022/03/06 01:54:16;;;;;;;9.13;8.23;;;;;;;-0.54;68.73;101674.63;5070161;28;20787;-24
2022/03/06 01:56:44;;;;;;;9.43;8.30;;;;;;;-0.54;68.21;101670.34;5071438;28;20031;-24
2022/03/06 01:59:10;;;;;;;10.63;8.07;;;;;;;-0.54;68.55;101670.34;5067180;28;20066;-25
2022/03/06 02:01:36;;;;;;;9.25;8.23;;;;;;;-0.52;68.25;101675.59;5053027;28;20028;-25
2022/03/06 02:04:01;;;;;;;9.50;8.40;;;;;;;-0.53;68.22;101671.25;5070972;28;20094;-25
2022/03/06 02:06:27;;;;;;;10.98;8.75;;;;;;;-0.52;68.28;101675.59;5071403;28;20028;-24
2022/03/06 02:08:55;;;;;;;8.98;7.57;;;;;;;-0.51;68.30;101677.38;5071515;28;20024;-25
2022/03/06 02:11:26;;;;;;;10.82;8.45;;;;;;;-0.52;68.82;101653.19;5071438;28;20043;-25
2022/03/06 02:13:52;;;;;;;;;;;;;;;-0.50;68.83;101667.91;5070367;28;20024;-25
2022/03/06 02:16:17;;;;;;;8.55;7.70;;;;;;;-0.49;68.77;101680.97;5072351;28;20030;-24
2022/03/06 02:18:42;;;;;;;10.50;8.35;;;;;;;-0.49;68.60;101665.41;5070176;28;20025;-25
2022/03/06 02:21:11;;;;;;;10.40;8.70;;;;;;;-0.48;68.72;101656.81;5033062;28;20058;-25
2022/03/06 02:23:38;;;;;;;8.05;7.30;;;;;;;-0.48;68.31;101655.91;5070654;28;20028;-24
2022/03/06 02:26:05;;;;;;;8.52;7.47;;;;;;;-0.47;68.54;101653.41;5053191;28;20035;-24
2022/03/06 02:28:30;;;;;;;9.75;8.35;;;;;;;-0.45;68.11;101654.38;5072390;28;20477;-23
2022/03/06 02:30:56;;;;;;;8.77;7.88;;;;;;;-0.43;68.08;101651.88;5068853;28;20097;-25
2022/03/06 02:33:21;;;;;;;10.05;8.57;;;;;;;-0.43;68.57;101657.94;5070936;28;20032;-24
2022/03/06 02:35:47;;;;;;;9.25;8.15;;;;;;;-0.43;68.36;101650.16;5049996;28;20032;-25
2022/03/06 02:38:12;;;;;;;10.10;7.43;;;;;;;-0.42;67.99;101649.38;5069241;28;20493;-25
2022/03/06 02:40:39;;;;;;;9.10;7.65;;;;;;;-0.40;68.12;101660.69;5070913;28;20145;-25
2022/03/06 02:43:05;;;;;;;12.38;8.45;;;;;;;-0.40;68.20;101650.31;5052059;28;20323;-24
2022/03/06 02:45:30;;;;;;;10.70;7.85;;;;;;;-0.39;67.80;101652.09;5069316;28;20523;-23
2022/03/06 02:47:56;;;;;;;9.05;7.93;;;;;;;-0.39;67.98;101649.50;5069590;28;20486;-25
2022/03/06 02:50:25;;;;;;;8.80;7.70;;;;;;;-0.37;68.02;101651.31;5070710;28;20029;-24
2022/03/06 02:52:52;;;;;;;11.30;8.43;;;;;;;-0.37;68.48;101651.31;5071602;28;20033;-25
2022/03/06 02:55:17;;;;;;;9.40;8.18;;;;;;;-0.36;68.39;101653.06;5071820;28;20025;-24
2022/03/06 02:57:43;;;;;;;8.95;8.10;;;;;;;-0.35;67.85;101639.28;5070185;28;20082;-24
2022/03/06 03:00:11;;;;;;;9.90;8.25;;;;;;;-0.35;68.03;101639.28;5069140;28;20378;-23
2022/03/06 03:02:37;;;;;;;10.77;8.55;;;;;;;-0.34;68.05;101644.56;5067333;28;20398;-25
2022/03/06 03:05:03;;;;;;;9.75;8.25;;;;;;;-0.35;68.53;101647.06;5069563;28;20027;-23
2022/03/06 03:07:32;;;;;;;12.05;8.38;;;;;;;-0.33;68.35;101648.94;5072303;28;20023;-25
2022/03/06 03:09:57;;;;;;;9.35;7.57;;;;;;;-0.34;68.24;101641.97;5068761;28;20044;-24
2022/03/06 03:12:23;;;;;;;10.05;7.88;;;;;;;-0.34;68.00;101644.56;5068840;28;20112;-23
2022/03/06 03:14:48;;;;;;;9.30;8.30;;;;;;;-0.32;68.08;101647.25;5069560;28;20025;-25
2022/03/06 03:17:13;;;;;;;8.88;7.82;;;;;;;-0.32;67.83;101645.53;5069186;28;20039;-25
2022/03/06 03:19:39;;;;;;;10.50;7.35;;;;;;;-0.31;67.88;101651.59;5069672;28;20051;-24
2022/03/06 03:22:04;;;;;;;8.90;7.72;;;;;;;-0.32;68.00;101644.66;5068963;28;20463;-25
2022/03/06 03:24:29;;;;;;;10.05;8.70;;;;;;;-0.31;67.88;101649.00;5069715;28;20031;-25
2022/03/06 03:26:58;;;;;;;9.23;8.15;;;;;;;-0.31;68.50;101647.31;5053609;28;20390;-25
2022/03/06 03:29:26;;;;;;;8.85;7.85;;;;;;;-0.31;68.25;101649.00;5069434;28;20067;-25
2022/03/06 03:31:51;;;;;;;11.18;8.23;;;;;;;-0.30;68.03;101650.81;5067894;28;20044;-24
2022/03/06 03:34:16;;;;;;;9.02;8.02;;;;;;;-0.29;68.47;101655.19;5067913;28;20436;-24
2022/03/06 03:36:43;;;;;;;8.07;7.22;;;;;;;-0.29;68.16;101650.00;5052935;28;20028;-25
2022/03/06 03:39:08;;;;;;;8.40;7.60;;;;;;;-0.30;68.21;101654.28;5069376;28;20047;-23
2022/03/06 03:41:34;;;;;;;9.55;8.55;;;;;;;-0.29;67.94;101655.19;5069623;28;20032;-24
2022/03/06 03:44:03;;;;;;;8.98;8.07;;;;;;;-0.28;68.14;101654.34;5065922;28;20032;-24
2022/03/06 03:46:29;;;;;;;8.98;8.02;;;;;;;-0.29;68.42;101650.00;5049158;28;20051;-25
2022/03/06 03:48:57;;;;;;;9.48;8.48;;;;;;;-0.28;68.16;101652.66;5069875;28;20028;-25
2022/03/06 03:51:26;;;;;;;8.30;7.28;;;;;;;-0.29;68.22;101653.47;5066616;28;20089;-25
2022/03/06 03:53:51;;;;;;;9.10;7.93;;;;;;;-0.27;68.60;101658.72;5068330;28;20056;-25
2022/03/06 03:56:21;;;;;;;10.00;7.85;;;;;;;-0.28;67.98;101659.53;5069674;28;20024;-24
2022/03/06 03:58:46;;;;;;;11.05;8.57;;;;;;;-0.27;68.07;101663.91;5061271;28;20043;-24
2022/03/06 04:01:11;;;;;;;9.40;8.40;;;;;;;-0.25;68.59;101664.88;5068108;28;20028;-25
2022/03/06 04:03:39;;;;;;;9.55;7.95;;;;;;;-0.27;68.53;101663.91;5066680;28;20032;-25
2022/03/06 04:06:05;;;;;;;9.32;7.68;;;;;;;-0.27;68.07;101667.41;5067695;28;20024;-24
2022/03/06 04:08:30;;;;;;;10.70;8.60;;;;;;;-0.26;67.89;101665.72;5067901;28;20040;-25
2022/03/06 04:11:01;;;;;;;10.95;8.60;;;;;;;-0.26;68.35;101664.00;5068608;28;20028;-25
2022/03/06 04:13:27;;;;;;;9.85;8.55;;;;;;;-0.25;67.95;101662.28;5067303;28;20082;-25
2022/03/06 04:15:52;;;;;;;9.75;8.35;;;;;;;-0.24;68.10;101670.97;5067635;28;20059;-23
2022/03/06 04:18:18;;;;;;;9.45;8.38;;;;;;;-0.26;67.88;101668.31;5068245;28;20020;-23
2022/03/06 04:20:43;;;;;;;9.38;8.48;;;;;;;-0.26;68.62;101665.72;5067929;28;20111;-25
2022/03/06 04:23:08;;;;;;;9.63;8.55;;;;;;;-0.24;68.26;101673.56;5088821;22;20052;-24
2022/03/06 04:25:34;;;;;;;9.55;7.93;;;;;;;-0.26;68.48;101665.72;5056120;28;20055;-22
2022/03/06 04:27:59;;;;;;;9.30;7.95;;;;;;;-0.27;68.22;101669.09;5059717;28;20103;-24
2022/03/06 04:30:25;;;;;;;9.95;8.77;;;;;;;-0.28;68.22;101667.31;5039745;28;20470;-24
2022/03/06 04:32:51;;;;;;;9.75;7.80;;;;;;;-0.29;67.95;101666.44;5059793;28;20383;-22
2022/03/06 04:35:16;;;;;;;14.35;8.57;;;;;;;-0.27;67.92;101669.09;5041383;28;20063;-24
2022/03/06 04:37:41;;;;;;;8.88;7.90;;;;;;;-0.25;68.60;101675.25;5056497;28;20477;-23
2022/03/06 04:40:08;;;;;;;9.77;8.13;;;;;;;-0.24;68.52;101676.16;5062872;28;20028;-23
2022/03/06 04:42:33;;;;;;;10.10;8.45;;;;;;;-0.26;68.46;101687.31;5042296;28;20036;-24
2022/03/06 04:44:58;;;;;;;9.52;8.10;;;;;;;-0.27;68.53;101685.56;5059691;28;20027;-24
2022/03/06 04:47:24;;;;;;;10.52;8.68;;;;;;;-0.26;68.01;101679.53;5057878;28;20029;-22
2022/03/06 04:49:49;;;;;;;9.38;8.27;;;;;;;-0.24;68.16;101684.81;5057268;28;20032;-22
2022/03/06 04:52:14;;;;;;;8.63;7.53;;;;;;;-0.26;68.21;101681.28;5058558;28;20036;-22
2022/03/06 04:54:40;;;;;;;11.05;8.20;;;;;;;-0.23;68.46;101677.94;5026858;28;20210;-22
2022/03/06 04:57:05;;;;;;;9.70;8.70;;;;;;;-0.23;68.38;101681.44;5058949;28;20016;-21
2022/03/06 04:59:31;;;;;;;10.40;8.45;;;;;;;-0.23;68.41;101680.53;5058114;28;20029;-20
2022/03/06 05:01:56;;;;;;;9.68;8.68;;;;;;;-0.24;68.43;101682.22;5057595;28;20544;-21
2022/03/06 05:04:22;;;;;;;10.65;8.15;;;;;;;-0.24;68.02;101682.22;5058503;28;20085;-22
2022/03/06 05:06:47;;;;;;;9.77;8.00;;;;;;;-0.23;67.99;101680.53;5057630;28;20041;-22
2022/03/06 05:09:12;;;;;;;8.60;7.72;;;;;;;-0.25;68.19;101677.84;5058367;28;20021;-22
2022/03/06 05:11:37;;;;;;;11.05;8.63;;;;;;;-0.26;68.07;101681.28;5061665;28;20020;-22
2022/03/06 05:14:03;;;;;;;9.52;8.32;;;;;;;-0.26;68.02;101683.88;5043211;28;20033;-22
2022/03/06 05:16:28;;;;;;;9.88;8.73;;;;;;;-0.28;68.21;101688.97;5062500;28;20029;-21
2022/03/06 05:18:54;;;;;;;10.18;8.80;;;;;;;-0.32;68.21;101675.75;5062904;28;20080;-21
2022/03/06 05:21:19;;;;;;;10.50;8.93;;;;;;;-0.22;68.47;101697.88;5055326;28;20033;-22
2022/03/06 05:23:45;;;;;;;9.40;8.35;;;;;;;-0.22;68.56;101700.47;5059561;28;20052;-22
2022/03/06 05:26:10;;;;;;;10.68;8.43;;;;;;;-0.24;68.63;101687.41;5057959;28;20036;-22
2022/03/06 05:28:36;;;;;;;11.15;9.27;;;;;;;-0.27;68.08;101687.25;5057407;28;20063;-22
2022/03/06 05:31:01;;;;;;;10.35;8.63;;;;;;;-0.26;68.47;101686.47;5057439;28;20039;-20
2022/03/06 05:33:26;;;;;;;10.00;8.25;;;;;;;-0.22;68.20;101697.88;5057189;28;20033;-22
2022/03/06 05:35:52;;;;;;;9.57;8.20;;;;;;;-0.23;68.38;101696.09;5057405;28;20532;-22
2022/03/06 05:38:17;;;;;;;9.68;8.27;;;;;;;-0.25;68.69;101688.22;5058536;28;20025;-22
2022/03/06 05:40:43;;;;;;;11.27;8.30;;;;;;;-0.28;68.27;101682.88;5059112;28;20027;-21
2022/03/06 05:43:08;;;;;;;10.02;8.57;;;;;;;-0.26;68.53;101702.88;5057777;28;20027;-21
2022/03/06 05:45:33;;;;;;;10.90;8.60;;;;;;;-0.24;68.27;101692.59;5058392;28;20048;-22
2022/03/06 05:47:59;;;;;;;11.25;9.00;;;;;;;-0.21;68.29;101697.03;5063817;28;20399;-22
2022/03/06 05:50:24;;;;;;;9.27;8.23;;;;;;;-0.23;68.31;101702.19;5057994;28;20040;-21
2022/03/06 05:52:50;;;;;;;10.27;8.73;;;;;;;-0.23;68.78;101702.19;5036574;28;20025;-19
2022/03/06 05:55:15;;;;;;;13.05;9.40;;;;;;;-0.25;68.56;101693.41;5051002;28;20402;-19
2022/03/06 05:57:41;;;;;;;11.43;8.30;;;;;;;-0.23;68.42;101702.19;5050047;28;20107;-19
2022/03/06 06:00:08;;;;;;;9.18;7.72;;;;;;;-0.22;68.58;101697.88;5034380;28;20028;-19
2022/03/06 06:02:38;;;;;;;10.20;8.40;;;;;;;-0.22;68.79;101703.06;5049126;28;20021;-19
2022/03/06 06:05:07;;;;;;;10.40;9.07;;;;;;;-0.23;68.45;101697.00;5050106;28;20020;-19
2022/03/06 06:07:37;;;;;;;9.77;7.97;;;;;;;-0.22;68.14;101701.34;5051691;28;20550;-19
2022/03/06 06:10:04;;;;;;;10.90;8.32;;;;;;;-0.23;68.81;101703.88;5054647;28;20029;-19
2022/03/06 06:12:29;;;;;;;11.38;8.43;;;;;;;-0.22;68.71;101703.06;5055500;28;20064;-19
2022/03/06 06:14:56;;;;;;;9.00;8.10;;;;;;;-0.22;68.15;101703.94;5051286;28;20458;-19
2022/03/06 06:17:22;;;;;;;12.10;8.32;;;;;;;-0.26;68.14;101697.69;5054768;28;20433;-19
2022/03/06 06:19:47;;;;;;;10.85;8.63;;;;;;;-0.32;68.76;101686.13;5057277;28;20047;-19
2022/03/06 06:22:13;;;;;;;8.73;7.78;;;;;;;-0.21;68.44;101703.13;5060512;28;20043;-19
2022/03/06 06:24:38;;;;;;;9.23;8.15;;;;;;;-0.22;67.98;101709.13;5053402;28;20474;-19
2022/03/06 06:27:03;;;;;;;9.60;8.20;;;;;;;-0.20;68.78;101697.13;5055580;28;20039;-19
2022/03/06 06:29:29;;;;;;;9.23;8.27;;;;;;;-0.20;68.04;101702.31;5056053;28;20036;-19
2022/03/06 06:31:54;;;;;;;10.05;9.00;;;;;;;-0.21;68.56;101708.31;5033624;28;20496;-19
2022/03/06 06:34:20;;;;;;;8.93;8.02;;;;;;;-0.20;68.06;101714.41;5055988;28;20463;-19
2022/03/06 06:36:46;;;;;;;9.50;8.40;;;;;;;-0.19;68.74;101714.50;5056575;28;20091;-19
2022/03/06 06:39:12;;;;;;;10.77;8.57;;;;;;;-0.19;68.69;101714.50;5056704;28;20024;-19
2022/03/06 06:41:39;;;;;;;12.15;8.85;;;;;;;-0.18;68.76;101723.13;5052614;28;20078;-19
2022/03/06 06:44:05;;;;;;;11.82;10.52;;;;;;;-0.18;68.09;101716.25;5061363;28;20029;-21
2022/03/06 06:46:30;;;;;;;14.18;11.55;;;;;;;-0.18;68.38;101720.53;5053418;28;20071;-19
2022/03/06 06:48:55;;;;;;;21.55;13.45;;;;;;;-0.18;68.15;101721.44;5058905;28;20025;-19
2022/03/06 06:51:21;;;;;;;15.38;12.98;;;;;;;-0.17;68.29;101727.53;5055105;28;20628;-19
2022/03/06 06:53:47;;;;;;;17.48;12.35;;;;;;;-0.16;68.17;101729.31;5051321;28;20028;-19
2022/03/06 06:56:22;;;;;;;16.63;13.00;;;;;;;-0.16;68.58;101727.59;5050278;28;20027;-19
2022/03/06 06:58:47;;;;;;;13.88;11.95;;;;;;;-0.16;68.70;101734.50;5054873;28;20124;-19
2022/03/06 07:01:12;;;;;;;16.27;13.23;;;;;;;-0.16;68.43;101731.91;5050758;28;20017;-21
2022/03/06 07:03:38;;;;;;;18.23;13.43;;;;;;;-0.15;68.29;101744.97;5039717;28;20398;-20
2022/03/06 07:06:03;;;;;;;13.95;12.50;;;;;;;-0.15;68.26;101742.34;5052251;28;20028;-21
2022/03/06 07:08:28;;;;;;;14.25;12.82;;;;;;;-0.14;68.33;101748.41;5053355;28;20063;-19
2022/03/06 07:10:54;;;;;;;14.40;12.25;;;;;;;-0.14;68.34;101744.13;5050695;28;20505;-19
2022/03/06 07:13:19;;;;;;;18.33;12.45;;;;;;;-0.13;68.60;101745.03;5052732;28;20399;-19
2022/03/06 07:15:44;;;;;;;14.05;12.55;;;;;;;-0.13;68.33;101751.09;5051838;28;20110;-19
2022/03/06 07:18:10;;;;;;;13.95;11.60;;;;;;;-0.11;68.64;101742.53;5052125;28;20024;-19
2022/03/06 07:20:35;;;;;;;14.82;11.63;;;;;;;-0.11;68.38;101746.00;5048816;28;20043;-20
2022/03/06 07:23:00;;;;;;;14.73;11.48;;;;;;;-0.09;68.55;101746.06;5053124;28;20052;-21
2022/03/06 07:25:25;;;;;;;13.15;11.48;;;;;;;-0.09;68.28;101748.66;5053435;28;20041;-19
2022/03/06 07:27:54;;;;;;;14.25;11.63;;;;;;;-0.07;68.24;101752.25;5036226;28;20116;-19
2022/03/06 07:30:20;;;;;;;12.57;11.23;;;;;;;-0.07;68.48;101763.50;5053122;28;20159;-22
2022/03/06 07:32:49;;;;;;;12.23;10.90;;;;;;;-0.05;68.34;101758.38;5050695;28;20120;-19
2022/03/06 07:35:15;;;;;;;13.90;11.10;;;;;;;-0.05;68.48;101758.38;5051802;28;20017;-19
2022/03/06 07:37:41;;;;;;;13.55;11.25;;;;;;;-0.05;68.47;101753.19;5035139;28;20444;-21
2022/03/06 07:40:08;;;;;;;13.15;11.18;;;;;;;-0.04;68.18;101755.88;5051077;28;20474;-19
2022/03/06 07:42:33;;;;;;;13.18;10.43;;;;;;;-0.02;68.55;101748.19;5031821;28;20064;-19
2022/03/06 07:44:58;;;;;;;11.25;10.05;;;;;;;-0.03;68.63;101749.88;5032751;28;20048;-20
2022/03/06 07:47:24;;;;;;;12.02;10.32;;;;;;;-0.01;68.65;101749.94;5048062;28;20032;-21
2022/03/06 07:49:49;;;;;;;11.80;10.45;;;;;;;0.00;68.22;101756.94;5055149;28;20029;-19
2022/03/06 07:52:16;;;;;;;11.98;10.02;;;;;;;0.02;68.59;101759.59;5050376;28;20506;-19
2022/03/06 07:54:41;;;;;;;12.85;10.45;;;;;;;0.03;68.18;101757.06;5051860;28;20029;-19
2022/03/06 07:57:07;;;;;;;11.38;9.70;;;;;;;0.03;68.14;101757.06;5052145;28;20044;-19
2022/03/06 07:59:34;;;;;;;11.48;9.65;;;;;;;0.05;68.65;101760.66;5052551;28;20474;-20
2022/03/06 08:02:00;;;;;;;10.05;9.02;;;;;;;0.07;68.87;101758.16;5049092;28;20085;-19
2022/03/06 08:04:25;;;;;;;10.65;9.35;;;;;;;0.08;68.88;101771.19;5048153;28;20021;-19
2022/03/06 08:06:50;;;;;;;10.95;9.55;;;;;;;0.10;68.64;101769.56;5049475;28;20025;-19
2022/03/06 08:09:16;;;;;;;12.27;8.88;;;;;;;0.12;68.84;101767.94;5051670;28;20021;-19
2022/03/06 08:11:41;;;;;;;11.68;9.75;;;;;;;0.13;68.77;101763.63;5050647;28;20039;-20
2022/03/06 08:14:07;;;;;;;11.60;9.75;;;;;;;0.15;69.00;101769.81;5049970;28;20398;-19
2022/03/06 08:16:32;;;;;;;10.38;9.32;;;;;;;0.17;69.00;101777.66;5054340;28;20071;-19
2022/03/06 08:18:57;;;;;;;11.27;9.00;;;;;;;0.17;69.10;101765.56;5038961;28;20062;-20
2022/03/06 08:21:23;;;;;;;12.48;8.85;;;;;;;0.21;68.76;101774.41;5039831;28;20075;-19
2022/03/06 08:23:50;;;;;;;11.05;8.52;;;;;;;0.22;68.81;101777.09;5030743;28;20025;-19
2022/03/06 08:26:15;;;;;;;11.40;8.93;;;;;;;0.25;68.69;101768.56;5050214;28;20500;-21
2022/03/06 08:28:41;;;;;;;11.30;9.55;;;;;;;0.25;69.05;101771.16;5054541;28;20091;-19
2022/03/06 08:31:06;;;;;;;10.43;8.50;;;;;;;0.28;68.33;101773.91;5049116;28;20024;-19
2022/03/06 08:33:31;;;;;;;10.43;8.77;;;;;;;0.29;68.95;101767.91;5051954;28;20075;-19
2022/03/06 08:35:57;;;;;;;9.85;8.15;;;;;;;0.31;68.76;101776.69;5048725;28;20029;-19
2022/03/06 08:38:22;;;;;;;11.05;9.35;;;;;;;0.33;68.96;101769.84;5049634;28;20119;-20
2022/03/06 08:40:47;;;;;;;10.65;9.15;;;;;;;0.34;69.01;101769.03;5051529;28;20111;-20
2022/03/06 08:43:13;;;;;;;9.65;8.63;;;;;;;0.36;68.93;101772.59;5048934;28;20182;-19
2022/03/06 08:45:38;;;;;;;10.38;8.88;;;;;;;0.39;68.64;101771.84;5049530;28;20024;-19
2022/03/06 08:48:06;;;;;;;10.95;9.48;;;;;;;0.42;69.08;101772.03;5048294;28;20021;-19
2022/03/06 08:50:32;;;;;;;9.95;8.63;;;;;;;0.44;68.84;101773.00;5049388;28;20035;-19
2022/03/06 08:52:57;;;;;;;9.40;8.48;;;;;;;0.45;68.68;101776.47;5049198;28;20036;-20
2022/03/06 08:55:25;;;;;;;9.63;8.50;;;;;;;0.50;68.54;101788.00;5048774;28;20540;-19
2022/03/06 08:57:50;;;;;;;9.65;8.65;;;;;;;0.51;68.55;101781.97;5047442;28;20029;-19
2022/03/06 09:00:16;;;;;;;10.85;8.82;;;;;;;0.55;68.59;101791.72;5054353;28;20024;-19
2022/03/06 09:02:42;;;;;;;10.40;9.27;;;;;;;0.59;68.54;101784.94;5052118;28;20075;-20
2022/03/06 09:05:08;;;;;;;9.35;8.40;;;;;;;0.61;68.54;101792.03;5050603;28;20731;-22
2022/03/06 09:07:33;;;;;;;11.15;8.90;;;;;;;0.66;68.65;101788.75;5055970;28;20029;-19
2022/03/06 09:09:59;;;;;;;9.80;8.80;;;;;;;0.70;68.25;101782.91;5053571;28;20395;-18
2022/03/06 09:12:26;;;;;;;8.90;8.00;;;;;;;0.72;68.72;101786.44;5046955;28;20031;-19
2022/03/06 09:14:53;;;;;;;9.82;8.82;;;;;;;0.75;68.39;101782.31;5056163;28;20025;-19
2022/03/06 09:17:18;;;;;;;10.02;8.18;;;;;;;0.78;68.67;101784.16;5048303;28;20029;-19
2022/03/06 09:19:44;;;;;;;11.82;9.35;;;;;;;0.81;68.67;101789.50;5051572;28;20029;-20
2022/03/06 09:22:09;;;;;;;9.90;8.85;;;;;;;0.87;68.74;101784.59;5051529;28;20100;-19
2022/03/06 09:24:34;;;;;;;11.23;9.45;;;;;;;0.89;68.42;101785.59;5054904;28;20070;-20
2022/03/06 09:26:59;;;;;;;12.18;8.98;;;;;;;0.92;68.25;101779.63;5049488;28;20403;-19
2022/03/06 09:29:25;;;;;;;12.15;9.02;;;;;;;0.95;68.02;101784.09;5048477;28;20025;-21
2022/03/06 09:31:50;;;;;;;15.38;10.32;;;;;;;0.97;67.93;101778.13;5052930;28;20387;-21
2022/03/06 09:34:15;;;;;;;10.75;9.45;;;;;;;1.04;68.23;101789.75;5056501;28;20055;-19
2022/03/06 09:36:42;;;;;;;10.40;9.13;;;;;;;1.06;68.26;101787.22;5032621;28;20352;-19
2022/03/06 09:39:07;;;;;;;12.43;9.50;;;;;;;1.08;68.01;101794.28;5053810;28;20029;-19
2022/03/06 09:41:38;;;;;;;11.60;9.65;;;;;;;1.12;67.85;101785.81;5037612;28;20021;-19
2022/03/06 09:44:04;;;;;;;10.75;9.38;;;;;;;1.16;67.67;101784.22;5054427;28;20115;-19
2022/03/06 09:46:33;;;;;;;9.63;8.60;;;;;;;1.19;67.97;101788.66;5033298;28;20061;-19
2022/03/06 09:48:58;;;;;;;12.23;9.63;;;;;;;1.21;67.75;101784.44;5052128;28;20040;-24
2022/03/06 09:51:24;;;;;;;10.40;9.30;;;;;;;1.26;67.73;101785.53;5050063;28;20040;-19
2022/03/06 09:53:49;;;;;;;12.05;10.10;;;;;;;1.30;67.99;101792.66;5054628;28;20114;-19
2022/03/06 09:56:15;;;;;;;12.98;9.82;;;;;;;1.33;67.59;101798.03;5036592;28;20025;-20
2022/03/06 09:58:40;;;;;;;11.98;10.35;;;;;;;1.38;67.99;101800.84;5057485;28;20063;-19
2022/03/06 10:01:05;;;;;;;11.77;9.85;;;;;;;1.41;67.82;101795.78;5056929;28;20108;-19
2022/03/06 10:03:37;;;;;;;10.60;9.50;;;;;;;1.45;67.86;101794.22;5052503;28;20036;-19
2022/03/06 10:06:07;;;;;;;12.00;10.73;;;;;;;1.50;67.59;101787.53;5057920;28;20413;-19
2022/03/06 10:08:32;;;;;;;13.90;11.50;;;;;;;1.50;67.37;101791.00;5035933;28;20510;-19
2022/03/06 10:11:01;;;;;;;13.00;10.95;;;;;;;1.54;67.62;101782.53;5034866;28;20032;-21
2022/03/06 10:13:31;;;;;;;12.98;11.40;;;;;;;1.57;67.54;101776.56;5054725;28;20056;-19
2022/03/06 10:16:00;;;;;;;12.75;11.05;;;;;;;1.61;67.67;101781.13;5058750;28;20036;-19
2022/03/06 10:18:25;;;;;;;14.75;11.25;;;;;;;1.67;67.08;101777.91;5041668;28;20056;-19
2022/03/06 10:20:50;;;;;;;12.48;11.07;;;;;;;1.70;67.22;101782.34;5056232;28;20482;-19
2022/03/06 10:23:26;;;;;;;14.68;12.45;;;;;;;1.73;67.21;101775.56;5085784;22;20239;-21
2022/03/06 10:26:17;;;;;;;14.88;11.55;;;;;;;1.78;67.06;101770.56;5028864;28;20029;-21
2022/03/06 10:28:53;;;;;;;12.95;11.00;;;;;;;1.77;67.52;101781.81;5032636;28;20108;-21
2022/03/06 10:31:20;;;;;;;14.43;10.70;;;;;;;1.82;67.07;101788.09;5032822;28;20029;-21
2022/03/06 10:34:03;;;;;;;13.05;10.50;;;;;;;1.87;66.96;101785.72;5032804;28;20029;-21
2022/03/06 10:36:31;;;;;;;13.57;10.75;;;;;;;1.89;66.89;101784.97;5035759;28;20029;-21
2022/03/06 10:38:56;;;;;;;14.52;11.40;;;;;;;1.94;66.85;101792.06;5037868;28;20075;-21
2022/03/06 10:41:21;;;;;;;14.77;11.38;;;;;;;1.94;66.88;101781.66;5034156;28;20029;-21
2022/03/06 10:43:49;;;;;;;11.40;10.07;;;;;;;1.97;66.66;101785.28;5014088;28;20083;-21
2022/03/06 10:46:18;;;;;;;14.73;10.45;;;;;;;1.99;66.80;101787.94;5028432;28;20100;-21
2022/03/06 10:48:57;;;;;;;13.82;10.00;;;;;;;2.04;66.42;101789.06;5031122;28;20048;-21
2022/03/06 10:51:23;;;;;;;11.52;9.70;;;;;;;2.06;66.51;101787.41;5031127;28;20029;-21
2022/03/06 10:53:57;;;;;;;13.02;9.32;;;;;;;2.06;65.94;101787.41;5028870;28;20032;-21
2022/03/06 10:56:23;;;;;;;10.32;8.80;;;;;;;2.11;65.78;101788.53;5026402;28;20022;-21
2022/03/06 10:58:49;;;;;;;9.50;8.60;;;;;;;2.12;65.92;101781.56;5031301;28;20036;-21
2022/03/06 11:01:14;;;;;;;10.50;8.15;;;;;;;2.15;65.83;101787.81;5015117;28;20029;-21
2022/03/06 11:03:41;;;;;;;10.38;7.57;;;;;;;2.17;65.84;101785.28;5031518;28;20036;-21
2022/03/06 11:06:09;;;;;;;10.57;7.97;;;;;;;2.18;65.92;101787.97;5014761;28;20086;-21
2022/03/06 11:08:35;;;;;;;13.45;8.70;;;;;;;2.22;65.93;101780.25;5034137;28;20044;-21
2022/03/06 11:11:01;;;;;;;9.23;6.75;;;;;;;2.23;65.68;101784.66;5029871;28;20029;-21
2022/03/06 11:13:29;;;;;;;8.30;6.47;;;;;;;2.24;65.77;101781.22;5026286;28;20447;-21
2022/03/06 11:15:56;;;;;;;7.75;6.85;;;;;;;2.26;65.52;101785.69;5031516;28;20025;-21
2022/03/06 11:18:26;;;;;;;9.55;6.60;;;;;;;2.29;65.62;101783.22;5026832;28;20411;-21